sensor_id;sensor_type;location;lat;lon;timestamp;temperature;humidity
33109;HTU21D;19481;51.118;6.940;2024-02-16T00:01:59;13.56;62.41
33109;HTU21D;19481;51.118;6.940;2024-02-16T00:07:01;13.60;62.27
33109;HTU21D;19481;51.118;6.940;2024-02-16T00:12:04;13.55;63.16
33109;HTU21D;19481;51.118;6.940;2024-02-16T00:17:06;13.59;63.05
33109;HTU21D;19481;51.118;6.940;2024-02-16T00:22:10;13.59;62.31
33109;HTU21D;19481;51.118;6.940;2024-02-16T00:27:14;13.66;62.80
33109;HTU21D;19481;51.118;6.940;2024-02-16T00:32:16;13.61;62.42
33109;HTU21D;19481;51.118;6.940;2024-02-16T00:37:18;13.69;62.08
33109;HTU21D;19481;51.118;6.940;2024-02-16T00:42:21;13.66;63.02
33109;HTU21D;19481;51.118;6.940;2024-02-16T00:47:23;13.70;62.57
33109;HTU21D;19481;51.118;6.940;2024-02-16T00:52:26;13.70;62.82
33109;HTU21D;19481;51.118;6.940;2024-02-16T00:57:29;13.77;61.99
33109;HTU21D;19481;51.118;6.940;2024-02-16T01:02:30;13.79;62.73
33109;HTU21D;19481;51.118;6.940;2024-02-16T01:07:33;13.84;62.50
33109;HTU21D;19481;51.118;6.940;2024-02-16T01:12:36;13.81;62.59
33109;HTU21D;19481;51.118;6.940;2024-02-16T01:17:38;13.83;62.44
33109;HTU21D;19481;51.118;6.940;2024-02-16T01:22:40;13.90;61.70
33109;HTU21D;19481;51.118;6.940;2024-02-16T01:27:43;13.91;62.28
33109;HTU21D;19481;51.118;6.940;2024-02-16T01:32:45;13.94;62.10
33109;HTU21D;19481;51.118;6.940;2024-02-16T01:37:46;13.96;60.71
33109;HTU21D;19481;51.118;6.940;2024-02-16T01:42:49;14.04;61.95
33109;HTU21D;19481;51.118;6.940;2024-02-16T01:47:51;14.05;62.14
33109;HTU21D;19481;51.118;6.940;2024-02-16T01:52:53;14.08;61.34
33109;HTU21D;19481;51.118;6.940;2024-02-16T01:57:58;14.08;61.25
33109;HTU21D;19481;51.118;6.940;2024-02-16T02:03:01;14.10;61.85
33109;HTU21D;19481;51.118;6.940;2024-02-16T02:08:09;14.09;60.47
33109;HTU21D;19481;51.118;6.940;2024-02-16T02:13:12;14.09;61.44
33109;HTU21D;19481;51.118;6.940;2024-02-16T02:18:15;14.05;62.25
33109;HTU21D;19481;51.118;6.940;2024-02-16T02:23:18;14.06;62.00
33109;HTU21D;19481;51.118;6.940;2024-02-16T02:28:20;14.05;62.31
33109;HTU21D;19481;51.118;6.940;2024-02-16T02:33:24;14.07;62.10
33109;HTU21D;19481;51.118;6.940;2024-02-16T02:38:27;14.07;62.05
33109;HTU21D;19481;51.118;6.940;2024-02-16T02:43:28;14.08;61.46
33109;HTU21D;19481;51.118;6.940;2024-02-16T02:48:30;14.05;58.66
33109;HTU21D;19481;51.118;6.940;2024-02-16T02:53:33;14.01;62.40
33109;HTU21D;19481;51.118;6.940;2024-02-16T02:58:34;14.00;62.41
33109;HTU21D;19481;51.118;6.940;2024-02-16T03:03:36;13.97;61.70
33109;HTU21D;19481;51.118;6.940;2024-02-16T03:08:39;13.96;62.34
33109;HTU21D;19481;51.118;6.940;2024-02-16T03:13:41;13.92;62.51
33109;HTU21D;19481;51.118;6.940;2024-02-16T03:18:43;13.79;63.04
33109;HTU21D;19481;51.118;6.940;2024-02-16T03:23:46;13.73;62.86
33109;HTU21D;19481;51.118;6.940;2024-02-16T03:28:48;13.64;63.22
33109;HTU21D;19481;51.118;6.940;2024-02-16T03:33:50;13.62;63.24
33109;HTU21D;19481;51.118;6.940;2024-02-16T03:38:54;13.55;62.84
33109;HTU21D;19481;51.118;6.940;2024-02-16T03:43:56;13.53;61.73
33109;HTU21D;19481;51.118;6.940;2024-02-16T03:48:58;13.51;61.22
33109;HTU21D;19481;51.118;6.940;2024-02-16T03:54:01;13.56;62.95
33109;HTU21D;19481;51.118;6.940;2024-02-16T03:59:04;13.60;62.93
33109;HTU21D;19481;51.118;6.940;2024-02-16T04:04:06;13.62;62.77
33109;HTU21D;19481;51.118;6.940;2024-02-16T04:09:09;13.63;61.04
33109;HTU21D;19481;51.118;6.940;2024-02-16T04:14:10;13.69;61.25
33109;HTU21D;19481;51.118;6.940;2024-02-16T04:19:12;13.67;62.71
33109;HTU21D;19481;51.118;6.940;2024-02-16T04:24:15;13.69;62.71
33109;HTU21D;19481;51.118;6.940;2024-02-16T04:29:16;13.75;62.04
33109;HTU21D;19481;51.118;6.940;2024-02-16T04:34:18;13.78;62.58
33109;HTU21D;19481;51.118;6.940;2024-02-16T04:39:21;13.75;62.19
33109;HTU21D;19481;51.118;6.940;2024-02-16T04:44:23;13.75;62.73
33109;HTU21D;19481;51.118;6.940;2024-02-16T04:49:25;13.69;62.76
33109;HTU21D;19481;51.118;6.940;2024-02-16T04:54:28;13.68;62.93
33109;HTU21D;19481;51.118;6.940;2024-02-16T04:59:29;13.58;63.30
33109;HTU21D;19481;51.118;6.940;2024-02-16T05:04:31;13.48;63.18
33109;HTU21D;19481;51.118;6.940;2024-02-16T05:09:34;13.43;63.71
33109;HTU21D;19481;51.118;6.940;2024-02-16T05:14:35;13.35;63.93
33109;HTU21D;19481;51.118;6.940;2024-02-16T05:19:37;13.35;63.98
33109;HTU21D;19481;51.118;6.940;2024-02-16T05:24:40;13.37;63.95
33109;HTU21D;19481;51.118;6.940;2024-02-16T05:29:41;13.36;63.94
33109;HTU21D;19481;51.118;6.940;2024-02-16T05:34:44;13.34;63.99
33109;HTU21D;19481;51.118;6.940;2024-02-16T05:39:47;13.33;63.81
33109;HTU21D;19481;51.118;6.940;2024-02-16T05:44:57;13.33;64.03
33109;HTU21D;19481;51.118;6.940;2024-02-16T05:49:58;13.32;64.02
33109;HTU21D;19481;51.118;6.940;2024-02-16T05:55:01;13.32;63.88
33109;HTU21D;19481;51.118;6.940;2024-02-16T06:00:06;13.31;63.88
33109;HTU21D;19481;51.118;6.940;2024-02-16T06:05:08;13.25;64.02
33109;HTU21D;19481;51.118;6.940;2024-02-16T06:10:11;13.25;63.89
33109;HTU21D;19481;51.118;6.940;2024-02-16T06:15:12;13.16;64.25
33109;HTU21D;19481;51.118;6.940;2024-02-16T06:20:15;13.17;63.97
33109;HTU21D;19481;51.118;6.940;2024-02-16T06:25:18;13.19;64.03
33109;HTU21D;19481;51.118;6.940;2024-02-16T06:30:20;13.20;64.08
33109;HTU21D;19481;51.118;6.940;2024-02-16T06:35:22;13.21;64.12
33109;HTU21D;19481;51.118;6.940;2024-02-16T06:40:24;13.24;63.83
33109;HTU21D;19481;51.118;6.940;2024-02-16T06:45:27;13.30;63.27
33109;HTU21D;19481;51.118;6.940;2024-02-16T06:50:30;13.32;63.77
33109;HTU21D;19481;51.118;6.940;2024-02-16T06:55:33;13.35;63.79
33109;HTU21D;19481;51.118;6.940;2024-02-16T07:00:35;13.39;63.70
33109;HTU21D;19481;51.118;6.940;2024-02-16T07:05:36;13.43;63.67
33109;HTU21D;19481;51.118;6.940;2024-02-16T07:10:40;13.50;63.59
33109;HTU21D;19481;51.118;6.940;2024-02-16T07:15:42;13.55;63.34
33109;HTU21D;19481;51.118;6.940;2024-02-16T07:20:44;13.63;62.94
33109;HTU21D;19481;51.118;6.940;2024-02-16T07:25:47;13.71;63.05
33109;HTU21D;19481;51.118;6.940;2024-02-16T07:30:49;13.76;62.88
33109;HTU21D;19481;51.118;6.940;2024-02-16T07:35:51;13.80;62.95
33109;HTU21D;19481;51.118;6.940;2024-02-16T07:40:54;13.88;63.10
33109;HTU21D;19481;51.118;6.940;2024-02-16T07:45:56;13.93;62.25
33109;HTU21D;19481;51.118;6.940;2024-02-16T07:50:58;14.00;62.90
33109;HTU21D;19481;51.118;6.940;2024-02-16T07:56:04;14.07;62.81
33109;HTU21D;19481;51.118;6.940;2024-02-16T08:01:06;14.11;62.71
33109;HTU21D;19481;51.118;6.940;2024-02-16T08:06:08;14.17;62.71
33109;HTU21D;19481;51.118;6.940;2024-02-16T08:11:11;14.19;62.34
33109;HTU21D;19481;51.118;6.940;2024-02-16T08:16:12;14.24;62.51
33109;HTU21D;19481;51.118;6.940;2024-02-16T08:21:14;14.25;62.74
33109;HTU21D;19481;51.118;6.940;2024-02-16T08:26:17;14.29;62.73
33109;HTU21D;19481;51.118;6.940;2024-02-16T08:31:18;14.37;62.49
33109;HTU21D;19481;51.118;6.940;2024-02-16T08:36:20;14.41;62.51
33109;HTU21D;19481;51.118;6.940;2024-02-16T08:41:29;14.49;62.28
33109;HTU21D;19481;51.118;6.940;2024-02-16T08:46:31;14.60;62.09
33109;HTU21D;19481;51.118;6.940;2024-02-16T08:51:32;14.70;61.99
33109;HTU21D;19481;51.118;6.940;2024-02-16T08:56:35;14.77;61.84
33109;HTU21D;19481;51.118;6.940;2024-02-16T09:01:42;14.83;61.82
33109;HTU21D;19481;51.118;6.940;2024-02-16T09:06:44;14.89;61.93
33109;HTU21D;19481;51.118;6.940;2024-02-16T09:11:47;14.91;61.98
33109;HTU21D;19481;51.118;6.940;2024-02-16T09:16:48;14.99;61.97
33109;HTU21D;19481;51.118;6.940;2024-02-16T09:21:51;15.02;62.09
33109;HTU21D;19481;51.118;6.940;2024-02-16T09:26:56;15.04;61.87
33109;HTU21D;19481;51.118;6.940;2024-02-16T09:31:57;15.01;62.16
33109;HTU21D;19481;51.118;6.940;2024-02-16T09:36:59;15.03;62.12
33109;HTU21D;19481;51.118;6.940;2024-02-16T09:42:02;15.03;61.88
33109;HTU21D;19481;51.118;6.940;2024-02-16T09:47:04;15.06;61.22
33109;HTU21D;19481;51.118;6.940;2024-02-16T09:52:10;15.13;61.94
33109;HTU21D;19481;51.118;6.940;2024-02-16T09:57:16;15.39;59.70
33109;HTU21D;19481;51.118;6.940;2024-02-16T10:02:18;15.41;61.42
33109;HTU21D;19481;51.118;6.940;2024-02-16T10:07:30;15.33;57.75
33109;HTU21D;19481;51.118;6.940;2024-02-16T10:12:33;15.30;61.86
33109;HTU21D;19481;51.118;6.940;2024-02-16T10:17:35;15.27;59.62
33109;HTU21D;19481;51.118;6.940;2024-02-16T10:22:37;15.30;62.11
33109;HTU21D;19481;51.118;6.940;2024-02-16T10:27:40;15.39;61.89
33109;HTU21D;19481;51.118;6.940;2024-02-16T10:32:41;15.42;61.77
33109;HTU21D;19481;51.118;6.940;2024-02-16T10:37:44;15.39;62.01
33109;HTU21D;19481;51.118;6.940;2024-02-16T10:42:49;15.33;62.15
33109;HTU21D;19481;51.118;6.940;2024-02-16T10:47:51;15.27;62.12
33109;HTU21D;19481;51.118;6.940;2024-02-16T10:52:53;15.16;62.81
33109;HTU21D;19481;51.118;6.940;2024-02-16T10:57:58;15.14;62.76
33109;HTU21D;19481;51.118;6.940;2024-02-16T11:03:02;15.12;62.87
33109;HTU21D;19481;51.118;6.940;2024-02-16T11:08:11;15.18;62.69
33109;HTU21D;19481;51.118;6.940;2024-02-16T11:13:22;15.06;62.53
33109;HTU21D;19481;51.118;6.940;2024-02-16T11:18:24;15.08;62.73
33109;HTU21D;19481;51.118;6.940;2024-02-16T11:23:27;15.04;62.87
33109;HTU21D;19481;51.118;6.940;2024-02-16T11:28:33;15.10;62.73
33109;HTU21D;19481;51.118;6.940;2024-02-16T11:33:35;15.04;62.93
33109;HTU21D;19481;51.118;6.940;2024-02-16T11:38:37;15.06;62.91
33109;HTU21D;19481;51.118;6.940;2024-02-16T11:43:40;15.07;62.94
33109;HTU21D;19481;51.118;6.940;2024-02-16T11:48:42;15.02;63.14
33109;HTU21D;19481;51.118;6.940;2024-02-16T11:53:44;15.03;62.64
33109;HTU21D;19481;51.118;6.940;2024-02-16T11:58:47;14.96;63.43
33109;HTU21D;19481;51.118;6.940;2024-02-16T12:03:49;14.91;63.56
33109;HTU21D;19481;51.118;6.940;2024-02-16T12:08:50;14.88;63.65
33109;HTU21D;19481;51.118;6.940;2024-02-16T12:13:55;14.85;63.78
33109;HTU21D;19481;51.118;6.940;2024-02-16T12:19:02;14.79;63.85
33109;HTU21D;19481;51.118;6.940;2024-02-16T12:24:04;14.81;63.56
33109;HTU21D;19481;51.118;6.940;2024-02-16T12:29:07;14.80;63.84
33109;HTU21D;19481;51.118;6.940;2024-02-16T12:34:12;14.82;63.82
33109;HTU21D;19481;51.118;6.940;2024-02-16T12:39:14;14.60;64.66
33109;HTU21D;19481;51.118;6.940;2024-02-16T12:44:17;14.33;66.15
33109;HTU21D;19481;51.118;6.940;2024-02-16T12:49:19;14.11;66.76
33109;HTU21D;19481;51.118;6.940;2024-02-16T12:54:22;13.95;67.62
33109;HTU21D;19481;51.118;6.940;2024-02-16T12:59:25;13.88;67.59
33109;HTU21D;19481;51.118;6.940;2024-02-16T13:04:27;13.77;68.55
33109;HTU21D;19481;51.118;6.940;2024-02-16T13:09:31;13.68;68.94
33109;HTU21D;19481;51.118;6.940;2024-02-16T13:14:34;13.70;68.46
33109;HTU21D;19481;51.118;6.940;2024-02-16T13:19:37;13.73;68.89
33109;HTU21D;19481;51.118;6.940;2024-02-16T13:24:38;13.67;69.16
33109;HTU21D;19481;51.118;6.940;2024-02-16T13:29:41;13.75;68.73
33109;HTU21D;19481;51.118;6.940;2024-02-16T13:34:43;13.78;68.97
33109;HTU21D;19481;51.118;6.940;2024-02-16T13:39:44;13.78;68.90
33109;HTU21D;19481;51.118;6.940;2024-02-16T13:44:47;13.86;68.67
33109;HTU21D;19481;51.118;6.940;2024-02-16T13:49:49;13.91;68.86
33109;HTU21D;19481;51.118;6.940;2024-02-16T13:54:52;13.94;68.87
33109;HTU21D;19481;51.118;6.940;2024-02-16T13:59:56;14.03;68.59
33109;HTU21D;19481;51.118;6.940;2024-02-16T14:04:58;14.05;69.08
33109;HTU21D;19481;51.118;6.940;2024-02-16T14:10:00;14.13;68.70
33109;HTU21D;19481;51.118;6.940;2024-02-16T14:15:04;14.24;68.05
33109;HTU21D;19481;51.118;6.940;2024-02-16T14:20:06;14.29;67.98
33109;HTU21D;19481;51.118;6.940;2024-02-16T14:25:10;14.27;68.04
33109;HTU21D;19481;51.118;6.940;2024-02-16T14:30:14;14.28;68.38
33109;HTU21D;19481;51.118;6.940;2024-02-16T14:35:16;14.25;68.98
33109;HTU21D;19481;51.118;6.940;2024-02-16T14:40:18;14.21;69.00
33109;HTU21D;19481;51.118;6.940;2024-02-16T14:45:21;14.19;69.04
33109;HTU21D;19481;51.118;6.940;2024-02-16T14:50:22;14.13;69.42
33109;HTU21D;19481;51.118;6.940;2024-02-16T14:55:24;14.07;69.65
33109;HTU21D;19481;51.118;6.940;2024-02-16T15:00:27;14.07;69.84
33109;HTU21D;19481;51.118;6.940;2024-02-16T15:05:29;14.04;70.34
33109;HTU21D;19481;51.118;6.940;2024-02-16T15:10:30;14.01;70.59
33109;HTU21D;19481;51.118;6.940;2024-02-16T15:15:33;14.01;70.56
33109;HTU21D;19481;51.118;6.940;2024-02-16T15:20:35;14.00;70.73
33109;HTU21D;19481;51.118;6.940;2024-02-16T15:25:37;14.05;70.44
33109;HTU21D;19481;51.118;6.940;2024-02-16T15:30:40;14.00;70.46
33109;HTU21D;19481;51.118;6.940;2024-02-16T15:35:42;13.91;71.51
33109;HTU21D;19481;51.118;6.940;2024-02-16T15:40:43;13.89;71.35
33109;HTU21D;19481;51.118;6.940;2024-02-16T15:45:46;13.82;71.67
33109;HTU21D;19481;51.118;6.940;2024-02-16T15:50:50;13.75;72.13
33109;HTU21D;19481;51.118;6.940;2024-02-16T15:55:51;13.59;73.54
33109;HTU21D;19481;51.118;6.940;2024-02-16T16:00:54;13.43;72.78
33109;HTU21D;19481;51.118;6.940;2024-02-16T16:05:56;13.38;72.67
33109;HTU21D;19481;51.118;6.940;2024-02-16T16:10:58;13.33;72.62
33109;HTU21D;19481;51.118;6.940;2024-02-16T16:16:04;13.29;72.82
33109;HTU21D;19481;51.118;6.940;2024-02-16T16:21:06;13.30;72.54
33109;HTU21D;19481;51.118;6.940;2024-02-16T16:26:08;13.26;72.61
33109;HTU21D;19481;51.118;6.940;2024-02-16T16:31:11;13.25;72.46
33109;HTU21D;19481;51.118;6.940;2024-02-16T16:36:13;13.25;72.32
33109;HTU21D;19481;51.118;6.940;2024-02-16T16:41:15;13.22;72.58
33109;HTU21D;19481;51.118;6.940;2024-02-16T16:46:18;13.22;72.17
33109;HTU21D;19481;51.118;6.940;2024-02-16T16:51:19;13.21;72.48
33109;HTU21D;19481;51.118;6.940;2024-02-16T16:56:21;13.21;72.35
33109;HTU21D;19481;51.118;6.940;2024-02-16T17:01:24;13.21;72.24
33109;HTU21D;19481;51.118;6.940;2024-02-16T17:06:26;13.16;72.48
33109;HTU21D;19481;51.118;6.940;2024-02-16T17:11:28;13.15;72.41
33109;HTU21D;19481;51.118;6.940;2024-02-16T17:16:31;13.10;72.42
33109;HTU21D;19481;51.118;6.940;2024-02-16T17:21:32;13.07;72.85
33109;HTU21D;19481;51.118;6.940;2024-02-16T17:26:34;13.02;72.94
33109;HTU21D;19481;51.118;6.940;2024-02-16T17:31:37;12.93;72.77
33109;HTU21D;19481;51.118;6.940;2024-02-16T17:36:39;12.91;72.57
33109;HTU21D;19481;51.118;6.940;2024-02-16T17:41:41;12.87;72.35
33109;HTU21D;19481;51.118;6.940;2024-02-16T17:46:44;12.87;72.09
33109;HTU21D;19481;51.118;6.940;2024-02-16T17:51:45;12.82;72.34
33109;HTU21D;19481;51.118;6.940;2024-02-16T17:56:47;12.79;72.27
33109;HTU21D;19481;51.118;6.940;2024-02-16T18:01:50;12.77;72.03
33109;HTU21D;19481;51.118;6.940;2024-02-16T18:06:51;12.73;72.09
33109;HTU21D;19481;51.118;6.940;2024-02-16T18:11:53;12.69;72.03
33109;HTU21D;19481;51.118;6.940;2024-02-16T18:16:56;12.65;71.92
33109;HTU21D;19481;51.118;6.940;2024-02-16T18:21:58;12.59;72.06
33109;HTU21D;19481;51.118;6.940;2024-02-16T18:26:59;12.56;71.75
33109;HTU21D;19481;51.118;6.940;2024-02-16T18:32:03;12.59;71.10
33109;HTU21D;19481;51.118;6.940;2024-02-16T18:37:05;12.53;71.01
33109;HTU21D;19481;51.118;6.940;2024-02-16T18:42:06;12.55;70.71
33109;HTU21D;19481;51.118;6.940;2024-02-16T18:47:09;12.56;70.55
33109;HTU21D;19481;51.118;6.940;2024-02-16T18:52:11;12.52;70.71
33109;HTU21D;19481;51.118;6.940;2024-02-16T18:57:14;12.49;70.64
33109;HTU21D;19481;51.118;6.940;2024-02-16T19:02:18;12.49;70.32
33109;HTU21D;19481;51.118;6.940;2024-02-16T19:07:20;12.47;70.35
33109;HTU21D;19481;51.118;6.940;2024-02-16T19:12:22;12.46;70.42
33109;HTU21D;19481;51.118;6.940;2024-02-16T19:17:25;12.45;70.29
33109;HTU21D;19481;51.118;6.940;2024-02-16T19:22:27;12.44;70.47
33109;HTU21D;19481;51.118;6.940;2024-02-16T19:27:28;12.47;70.39
33109;HTU21D;19481;51.118;6.940;2024-02-16T19:32:31;12.43;70.52
33109;HTU21D;19481;51.118;6.940;2024-02-16T19:37:33;12.44;70.63
33109;HTU21D;19481;51.118;6.940;2024-02-16T19:42:35;12.50;70.44
33109;HTU21D;19481;51.118;6.940;2024-02-16T19:47:39;12.47;70.52
33109;HTU21D;19481;51.118;6.940;2024-02-16T19:52:43;12.47;70.60
33109;HTU21D;19481;51.118;6.940;2024-02-16T19:57:44;12.48;70.63
33109;HTU21D;19481;51.118;6.940;2024-02-16T20:02:47;12.48;70.73
33109;HTU21D;19481;51.118;6.940;2024-02-16T20:07:52;12.49;70.88
33109;HTU21D;19481;51.118;6.940;2024-02-16T20:12:53;12.48;70.93
33109;HTU21D;19481;51.118;6.940;2024-02-16T20:17:57;12.49;70.86
33109;HTU21D;19481;51.118;6.940;2024-02-16T20:23:01;12.51;70.97
33109;HTU21D;19481;51.118;6.940;2024-02-16T20:28:03;12.46;71.05
33109;HTU21D;19481;51.118;6.940;2024-02-16T20:33:06;12.45;71.05
33109;HTU21D;19481;51.118;6.940;2024-02-16T20:38:08;12.41;71.13
33109;HTU21D;19481;51.118;6.940;2024-02-16T20:43:10;12.42;71.21
33109;HTU21D;19481;51.118;6.940;2024-02-16T20:48:13;12.38;71.16
33109;HTU21D;19481;51.118;6.940;2024-02-16T20:53:14;12.33;71.27
33109;HTU21D;19481;51.118;6.940;2024-02-16T20:58:16;12.26;71.55
33109;HTU21D;19481;51.118;6.940;2024-02-16T21:03:19;12.15;71.68
33109;HTU21D;19481;51.118;6.940;2024-02-16T21:08:21;12.06;71.88
33109;HTU21D;19481;51.118;6.940;2024-02-16T21:13:22;12.01;71.87
33109;HTU21D;19481;51.118;6.940;2024-02-16T21:18:25;12.03;71.64
33109;HTU21D;19481;51.118;6.940;2024-02-16T21:23:27;12.01;71.72
33109;HTU21D;19481;51.118;6.940;2024-02-16T21:28:28;11.92;71.83
33109;HTU21D;19481;51.118;6.940;2024-02-16T21:33:31;11.94;71.67
33109;HTU21D;19481;51.118;6.940;2024-02-16T21:38:36;11.97;71.57
33109;HTU21D;19481;51.118;6.940;2024-02-16T21:43:37;11.94;71.56
33109;HTU21D;19481;51.118;6.940;2024-02-16T21:48:42;11.97;71.51
33109;HTU21D;19481;51.118;6.940;2024-02-16T21:53:43;11.99;71.42
33109;HTU21D;19481;51.118;6.940;2024-02-16T21:58:45;11.96;71.46
33109;HTU21D;19481;51.118;6.940;2024-02-16T22:03:48;11.92;71.49
33109;HTU21D;19481;51.118;6.940;2024-02-16T22:08:50;11.81;71.70
33109;HTU21D;19481;51.118;6.940;2024-02-16T22:13:52;11.76;71.85
33109;HTU21D;19481;51.118;6.940;2024-02-16T22:18:55;11.72;71.78
33109;HTU21D;19481;51.118;6.940;2024-02-16T22:23:57;11.71;71.87
33109;HTU21D;19481;51.118;6.940;2024-02-16T22:28:59;11.68;71.90
33109;HTU21D;19481;51.118;6.940;2024-02-16T22:34:02;11.58;71.90
33109;HTU21D;19481;51.118;6.940;2024-02-16T22:39:03;11.56;72.03
33109;HTU21D;19481;51.118;6.940;2024-02-16T22:44:05;11.57;71.87
33109;HTU21D;19481;51.118;6.940;2024-02-16T22:49:08;11.59;71.61
33109;HTU21D;19481;51.118;6.940;2024-02-16T22:54:09;11.58;71.51
33109;HTU21D;19481;51.118;6.940;2024-02-16T22:59:11;11.55;71.54
33109;HTU21D;19481;51.118;6.940;2024-02-16T23:04:14;11.54;71.51
33109;HTU21D;19481;51.118;6.940;2024-02-16T23:09:16;11.54;71.50
33109;HTU21D;19481;51.118;6.940;2024-02-16T23:14:17;11.54;71.40
33109;HTU21D;19481;51.118;6.940;2024-02-16T23:19:20;11.51;71.40
33109;HTU21D;19481;51.118;6.940;2024-02-16T23:24:22;11.47;71.54
33109;HTU21D;19481;51.118;6.940;2024-02-16T23:29:23;11.42;71.64
33109;HTU21D;19481;51.118;6.940;2024-02-16T23:34:26;11.40;71.61
33109;HTU21D;19481;51.118;6.940;2024-02-16T23:39:28;11.40;71.61
33109;HTU21D;19481;51.118;6.940;2024-02-16T23:44:30;11.32;71.69
33109;HTU21D;19481;51.118;6.940;2024-02-16T23:49:33;11.32;71.54
33109;HTU21D;19481;51.118;6.940;2024-02-16T23:54:34;11.27;71.69
33109;HTU21D;19481;51.118;6.940;2024-02-16T23:59:36;11.25;71.79
